Black Mesa, Arizona
Current Conditions -  °F | °C
As of 9:53 AM on Thursday 30 Oct 2014 (Local Time) from KPGA Reporting Station
Clear Clear  
Wind Chill: 54°   Ceiling: Unl
Heat Index: 54°   Visibility: 10mi
Dew Point: 20°   Wind: 5mph
Humidity: 26%   Direction: 320°NW
Pressure: 30.31"   Gusts: NA
Location:  36.6859°N, 110.268°W
Report Text: KPGA 301553Z AUTO 32004KT 10SM CLR 12/M07 A3031 RMK AO2 SLP233 T01221067
Loading
Personal Weather Stations






























Interactive Weather Map New forecast layout! Learn more

10-Day Weather Forecast

Advertisements
Track Severe Weather on mobile